Time;durP1;ratioP1;P1;durP2;ratioP2;P2;SDS_P1;SDS_P2;PMS_P1;PMS_P2;Temp;Humidity;BMP_temperature;BMP_pressure;BME280_temperature;BME280_humidity;BME280_pressure;Samples;Min_cycle;Max_cycle;Signal;HPM_P1;HPM_P2
2021/06/15 00:01:31;;;;;;;8.30;6.10;;;;;;;18.18;65.50;101154.50;4879610;29;20040;-85
2021/06/15 00:04:03;;;;;;;7.10;6.38;;;;;;;18.12;65.53;101160.88;4887853;29;20077;-85
2021/06/15 00:06:30;;;;;;;7.35;6.40;;;;;;;18.09;65.89;101163.59;4894278;29;20044;-85
2021/06/15 00:08:57;;;;;;;6.68;5.53;;;;;;;18.06;66.14;101162.84;4875833;29;20147;-85
2021/06/15 00:11:27;;;;;;;8.55;7.03;;;;;;;18.01;66.51;101161.19;4889541;29;20068;-85
2021/06/15 00:13:56;;;;;;;9.38;7.35;;;;;;;17.95;66.85;101163.19;4877726;29;20100;-85
2021/06/15 00:16:32;;;;;;;16.58;8.00;;;;;;;17.84;67.39;101161.69;4893018;29;20130;-85
2021/06/15 00:18:59;;;;;;;9.63;6.20;;;;;;;17.78;67.73;101163.66;4887718;29;20051;-85
2021/06/15 00:21:40;;;;;;;11.88;6.40;;;;;;;17.70;68.16;101166.56;4892266;29;20630;-85
2021/06/15 00:24:14;;;;;;;7.13;6.43;;;;;;;17.63;68.45;101157.94;4890173;29;20085;-85
2021/06/15 00:26:44;;;;;;;11.88;8.20;;;;;;;17.56;68.45;101159.06;4891020;29;20962;-84
2021/06/15 00:29:14;;;;;;;8.70;6.77;;;;;;;17.50;69.07;101167.16;4864623;29;20651;-85
2021/06/15 00:31:41;;;;;;;8.10;6.32;;;;;;;17.45;68.82;101167.28;4892554;29;20439;-84
2021/06/15 00:34:12;;;;;;;10.32;6.35;;;;;;;17.42;69.22;101166.53;4895246;29;20146;-85
2021/06/15 00:36:46;;;;;;;10.82;7.50;;;;;;;17.36;69.20;101165.81;4893273;29;20087;-85
2021/06/15 00:39:13;;;;;;;6.85;6.15;;;;;;;17.33;69.33;101163.22;4879917;29;20114;-85
2021/06/15 00:41:41;;;;;;;8.50;7.65;;;;;;;17.30;69.53;101160.69;4886322;29;20044;-85
2021/06/15 00:44:18;;;;;;;9.63;6.82;;;;;;;17.27;69.88;101165.19;4897169;29;20062;-84
2021/06/15 00:46:46;;;;;;;9.85;6.75;;;;;;;17.24;69.68;101160.00;4893866;29;20100;-85
2021/06/15 00:49:15;;;;;;;9.63;7.82;;;;;;;17.22;69.76;101164.44;4890913;29;20048;-85
2021/06/15 00:51:42;;;;;;;10.45;7.80;;;;;;;17.19;70.06;101153.06;4887782;29;20048;-85
2021/06/15 00:54:10;;;;;;;7.97;7.18;;;;;;;17.18;70.01;101163.66;4869765;29;20052;-85
2021/06/15 00:56:38;;;;;;;10.75;7.95;;;;;;;17.17;70.23;101168.09;4902980;29;20147;-85
2021/06/15 00:59:10;;;;;;;11.15;8.63;;;;;;;17.17;70.18;101167.25;4880810;29;20441;-85
2021/06/15 01:01:40;;;;;;;13.40;8.77;;;;;;;17.15;70.19;101177.84;4867998;29;20340;-85
2021/06/15 01:04:13;;;;;;;7.53;6.38;;;;;;;17.10;70.60;101169.16;4884614;29;20052;-85
2021/06/15 01:07:23;;;;;;;11.88;8.30;;;;;;;17.06;70.63;101172.81;4879156;29;20056;-84
2021/06/15 01:10:18;;;;;;;8.88;6.80;;;;;;;17.03;70.62;101170.25;4899950;29;20076;-85
2021/06/15 01:13:09;;;;;;;13.45;8.40;;;;;;;16.99;70.69;101174.75;4888029;29;20140;-85
2021/06/15 01:16:42;;;;;;;16.58;8.80;;;;;;;16.97;71.35;101167.78;4885804;29;20062;-85
2021/06/15 01:19:40;;;;;;;12.57;8.18;;;;;;;16.93;71.42;101169.63;4884573;29;20068;-84
2021/06/15 01:22:31;;;;;;;11.43;9.10;;;;;;;16.89;71.65;101161.81;4900172;29;20587;-84
2021/06/15 01:25:16;;;;;;;11.90;8.32;;;;;;;16.89;71.43;101162.66;4882938;29;20059;-85
2021/06/15 01:27:53;;;;;;;12.75;8.60;;;;;;;16.87;71.33;101167.16;4879449;29;20148;-85
2021/06/15 01:30:24;;;;;;;9.15;7.93;;;;;;;16.84;71.41;101160.16;4896589;29;20054;-85
2021/06/15 01:33:04;;;;;;;11.05;9.75;;;;;;;16.80;71.59;101157.63;4874756;29;20058;-85
2021/06/15 01:35:35;;;;;;;11.95;8.30;;;;;;;16.79;71.67;101154.13;4880680;29;20052;-85
2021/06/15 01:38:12;;;;;;;14.18;8.90;;;;;;;16.76;71.91;101159.47;4884728;29;20561;-85
2021/06/15 01:41:15;;;;;;;11.68;9.23;;;;;;;16.74;72.68;101176.28;4898056;29;20404;-85
2021/06/15 01:43:47;;;;;;;12.98;8.95;;;;;;;16.68;72.15;101175.53;4881806;29;20048;-85
2021/06/15 01:46:22;;;;;;;15.48;9.35;;;;;;;16.65;72.14;101178.28;4883211;29;20036;-85
2021/06/15 01:49:05;;;;;;;9.68;8.60;;;;;;;16.66;72.65;101176.47;4884970;29;20089;-85
2021/06/15 01:51:34;;;;;;;10.20;8.07;;;;;;;16.64;72.61;101184.47;4865394;29;20048;-85
2021/06/15 01:54:10;;;;;;;11.60;9.07;;;;;;;16.59;72.89;101183.72;4862564;29;20067;-85
2021/06/15 01:56:42;;;;;;;11.20;8.65;;;;;;;16.54;72.79;101183.84;4898313;29;20060;-85
2021/06/15 01:59:15;;;;;;;9.13;8.25;;;;;;;16.52;72.85;101193.56;4884111;29;20051;-84
2021/06/15 02:01:45;;;;;;;11.57;9.90;;;;;;;16.51;73.19;101196.25;4868770;29;20044;-84
2021/06/15 02:04:14;;;;;;;13.13;9.82;;;;;;;16.50;73.29;101191.88;4884104;29;20049;-85
2021/06/15 02:06:46;;;;;;;15.85;9.48;;;;;;;16.46;73.62;101179.66;4894687;29;20047;-85
2021/06/15 02:09:15;;;;;;;10.63;9.50;;;;;;;16.41;73.75;101177.09;4878871;29;20079;-85
2021/06/15 02:11:43;;;;;;;11.23;8.13;;;;;;;16.34;73.93;101184.31;4864336;29;20052;-84
2021/06/15 02:14:18;;;;;;;14.77;10.18;;;;;;;16.27;74.62;101188.03;4868828;29;20079;-85
2021/06/15 02:16:50;;;;;;;13.25;9.65;;;;;;;16.25;75.00;101184.56;4869122;29;20072;-84
2021/06/15 02:19:27;;;;;;;12.02;9.50;;;;;;;16.21;75.30;101194.31;4876738;29;20044;-85
2021/06/15 02:22:03;;;;;;;15.32;9.85;;;;;;;16.18;75.44;101201.47;4869057;29;20080;-85
2021/06/15 02:24:43;;;;;;;14.90;10.30;;;;;;;16.15;75.92;101197.13;4897193;29;20147;-85
2021/06/15 02:27:17;;;;;;;16.40;11.85;;;;;;;16.11;76.27;101208.63;4875323;29;20068;-85
2021/06/15 02:29:44;;;;;;;13.88;10.57;;;;;;;16.07;76.29;101211.41;4893012;29;20092;-84
2021/06/15 02:32:13;;;;;;;19.42;11.35;;;;;;;16.04;77.38;101215.84;4884060;29;20044;-85
2021/06/15 02:34:51;;;;;;;15.15;11.57;;;;;;;16.00;77.34;101219.47;4879773;29;20047;-85
2021/06/15 02:37:32;;;;;;;14.57;10.25;;;;;;;15.94;77.68;101216.09;4866823;29;20056;-84
2021/06/15 02:40:01;;;;;;;16.55;11.82;;;;;;;15.90;77.75;101225.00;4878960;29;20147;-85
2021/06/15 02:42:29;;;;;;;15.75;11.38;;;;;;;15.85;77.84;101225.06;4874469;29;20539;-84
2021/06/15 02:44:59;;;;;;;12.73;9.70;;;;;;;15.80;77.83;101224.28;4873399;29;20056;-84
2021/06/15 02:47:33;;;;;;;14.50;10.95;;;;;;;15.77;78.42;101233.13;4869060;29;20047;-85
2021/06/15 02:50:07;;;;;;;18.20;11.90;;;;;;;15.74;78.38;101229.72;4878684;29;20562;-85
2021/06/15 02:52:44;;;;;;;15.57;12.80;;;;;;;15.67;78.76;101226.31;4881072;29;20552;-85
2021/06/15 02:55:17;;;;;;;18.10;12.63;;;;;;;15.64;78.85;101229.00;4882438;29;20095;-85
2021/06/15 02:57:45;;;;;;;17.57;11.60;;;;;;;15.62;79.24;101234.31;4866331;29;20096;-85
2021/06/15 03:00:15;;;;;;;20.65;12.25;;;;;;;15.59;79.72;101233.53;4880275;29;20297;-85
2021/06/15 03:02:41;;;;;;;18.20;12.18;;;;;;;15.57;79.74;101227.41;4879030;29;20070;-84
2021/06/15 03:05:14;;;;;;;23.48;14.10;;;;;;;15.52;80.11;101233.63;4860538;29;20124;-84
2021/06/15 03:07:49;;;;;;;20.55;13.45;;;;;;;15.49;80.56;101236.34;4858166;29;20051;-85
2021/06/15 03:10:24;;;;;;;14.48;12.73;;;;;;;15.47;80.37;101232.00;4878564;29;20071;-84
2021/06/15 03:13:02;;;;;;;21.35;14.23;;;;;;;15.46;80.84;101241.69;4862701;29;20054;-84
2021/06/15 03:15:53;;;;;;;22.23;15.98;;;;;;;15.46;81.61;101243.44;4884672;29;20068;-84
2021/06/15 03:18:45;;;;;;;17.50;14.32;;;;;;;15.45;80.87;101244.34;4861391;29;20052;-85
2021/06/15 03:21:22;;;;;;;22.58;13.77;;;;;;;15.44;81.12;101251.41;4863867;29;20162;-84
2021/06/15 03:24:01;;;;;;;23.42;16.45;;;;;;;15.44;81.32;101246.13;4866525;29;20059;-85
2021/06/15 03:26:39;;;;;;;20.05;14.75;;;;;;;15.44;81.42;101235.56;4869280;29;20071;-84
2021/06/15 03:29:11;;;;;;;23.10;15.00;;;;;;;15.44;81.60;101246.13;4879528;29;20059;-84
2021/06/15 03:31:46;;;;;;;23.42;16.52;;;;;;;15.46;81.93;101249.63;4860311;29;20063;-84
2021/06/15 03:34:20;;;;;;;25.83;17.35;;;;;;;15.46;81.94;101254.88;4881528;29;21489;-84
2021/06/15 03:36:51;;;;;;;24.05;17.15;;;;;;;15.47;81.68;101250.47;4875729;29;20048;-84
2021/06/15 03:39:21;;;;;;;24.58;15.35;;;;;;;15.47;81.82;101258.38;4859118;29;20067;-85
2021/06/15 03:41:52;;;;;;;22.85;15.73;;;;;;;15.48;81.75;101265.41;4878261;29;20050;-84
2021/06/15 03:44:22;;;;;;;26.83;17.10;;;;;;;15.51;82.00;101262.69;4875132;29;20121;-84
2021/06/15 03:46:53;;;;;;;29.10;17.80;;;;;;;15.51;82.02;101262.69;4862954;29;20731;-85
2021/06/15 03:49:23;;;;;;;28.50;18.10;;;;;;;15.47;82.06;101264.53;4879329;29;20063;-85
2021/06/15 03:52:03;;;;;;;25.38;17.77;;;;;;;15.44;82.55;101248.75;4876384;29;20052;-85
2021/06/15 03:54:31;;;;;;;25.55;17.48;;;;;;;15.42;82.31;101258.47;4871698;29;20932;-85
2021/06/15 03:57:01;;;;;;;29.52;18.85;;;;;;;15.41;82.64;101259.38;4859230;29;20590;-85
2021/06/15 03:59:32;;;;;;;29.98;20.88;;;;;;;15.42;82.59;101261.09;4851608;29;20053;-85
2021/06/15 04:02:05;;;;;;;23.60;16.45;;;;;;;15.42;82.51;101270.78;4861488;29;20053;-85
2021/06/15 04:04:43;;;;;;;21.92;15.85;;;;;;;15.42;82.59;101258.47;4848704;29;20064;-85
2021/06/15 04:07:17;;;;;;;19.92;16.35;;;;;;;15.43;82.52;101268.13;4874802;29;20167;-85
2021/06/15 04:09:46;;;;;;;23.67;17.33;;;;;;;15.46;82.27;101267.19;4861966;29;20083;-84
2021/06/15 04:12:15;;;;;;;22.55;15.80;;;;;;;15.50;82.37;101279.41;4861211;29;20521;-85
2021/06/15 04:14:51;;;;;;;25.17;17.50;;;;;;;15.53;82.38;101279.38;4862475;29;20052;-84
2021/06/15 04:17:24;;;;;;;32.10;17.27;;;;;;;15.58;82.10;101290.72;4858268;29;20052;-85
2021/06/15 04:19:55;;;;;;;25.35;16.58;;;;;;;15.60;82.11;101290.69;4859531;29;20064;-85
2021/06/15 04:22:28;;;;;;;26.33;17.75;;;;;;;15.65;81.86;101289.69;4869788;29;20045;-84
2021/06/15 04:25:05;;;;;;;23.40;17.30;;;;;;;15.70;81.63;101290.47;4846342;29;20108;-85
2021/06/15 04:27:35;;;;;;;30.58;16.67;;;;;;;15.78;81.37;101292.94;4859361;29;20098;-85
2021/06/15 04:30:05;;;;;;;24.70;17.75;;;;;;;15.85;81.12;101294.59;4849143;29;20049;-85
2021/06/15 04:32:57;;;;;;;26.00;17.25;;;;;;;15.92;80.93;101297.09;4864103;29;20037;-85
2021/06/15 04:35:36;;;;;;;19.67;14.02;;;;;;;16.01;80.55;101310.13;4848733;29;20080;-85
2021/06/15 04:38:09;;;;;;;25.75;17.40;;;;;;;16.07;80.46;101307.34;4868291;29;20148;-83
2021/06/15 04:40:41;;;;;;;24.05;16.33;;;;;;;16.13;80.13;101303.72;4862567;29;20089;-85
2021/06/15 04:43:49;;;;;;;19.92;15.20;;;;;;;16.17;79.77;101306.25;4846125;29;20052;-85
2021/06/15 04:46:50;;;;;;;24.02;15.43;;;;;;;16.20;79.39;101306.19;4858870;29;20045;-84
2021/06/15 04:50:03;;;;;;;17.67;14.25;;;;;;;16.24;79.46;101314.03;4858511;29;21501;-84
2021/06/15 04:52:34;;;;;;;20.83;14.90;;;;;;;16.28;79.05;101307.78;4861534;29;20052;-85
2021/06/15 04:55:03;;;;;;;19.88;12.10;;;;;;;16.30;78.94;101312.13;4853625;29;20052;-85
2021/06/15 04:57:40;;;;;;;25.10;15.07;;;;;;;16.35;78.80;101306.75;4876771;29;20147;-85
2021/06/15 05:00:08;;;;;;;23.23;12.82;;;;;;;16.40;78.50;101304.00;4864888;29;20085;-84
2021/06/15 05:02:40;;;;;;;18.20;13.10;;;;;;;16.47;78.43;101301.16;4873873;29;20411;-85
2021/06/15 05:05:11;;;;;;;17.63;12.77;;;;;;;16.60;77.95;101306.19;4878433;29;20096;-85
2021/06/15 05:07:40;;;;;;;16.50;12.52;;;;;;;16.75;77.32;101304.94;4879952;29;20052;-84
2021/06/15 05:10:10;;;;;;;18.60;14.73;;;;;;;16.86;77.05;101305.53;4881783;29;20056;-85
2021/06/15 05:12:46;;;;;;;13.45;11.68;;;;;;;16.92;76.69;101299.25;4869656;29;21184;-84
2021/06/15 05:15:16;;;;;;;19.42;13.98;;;;;;;17.02;76.48;101311.34;4880292;29;20100;-84
2021/06/15 05:17:48;;;;;;;21.73;14.77;;;;;;;17.10;76.21;101312.00;4879398;29;20698;-85
2021/06/15 05:20:16;;;;;;;17.20;13.82;;;;;;;17.15;75.96;101314.56;4864463;29;20108;-84
2021/06/15 05:22:59;;;;;;;17.00;12.63;;;;;;;17.17;75.70;101310.09;4883617;29;20769;-84
2021/06/15 05:25:26;;;;;;;20.45;13.55;;;;;;;17.15;75.86;101323.34;4866584;29;20044;-84
2021/06/15 05:27:56;;;;;;;17.15;13.20;;;;;;;17.20;75.69;101320.59;4882065;29;20071;-84
2021/06/15 05:30:24;;;;;;;18.05;10.88;;;;;;;17.23;75.29;101315.22;4884420;29;20578;-84
2021/06/15 05:32:57;;;;;;;18.40;13.73;;;;;;;17.30;75.14;101322.09;4872012;29;20058;-84
2021/06/15 05:35:26;;;;;;;21.10;12.73;;;;;;;17.42;74.82;101335.91;4884871;29;20111;-84
2021/06/15 05:37:54;;;;;;;21.83;12.98;;;;;;;17.51;74.35;101338.31;4899251;29;20043;-84
2021/06/15 05:40:26;;;;;;;15.23;12.05;;;;;;;17.62;73.63;101338.88;4867459;29;20048;-84
2021/06/15 05:42:53;;;;;;;16.15;10.32;;;;;;;17.72;73.68;101342.16;4875388;29;20044;-84
2021/06/15 05:45:30;;;;;;;16.23;11.70;;;;;;;17.90;72.96;101339.88;4881178;29;20060;-85
2021/06/15 05:47:58;;;;;;;19.92;13.15;;;;;;;18.01;72.50;101338.69;4873566;29;20060;-84
2021/06/15 05:50:24;;;;;;;12.80;10.85;;;;;;;18.06;72.31;101348.31;4882059;29;20044;-85
2021/06/15 05:52:52;;;;;;;15.20;11.27;;;;;;;18.11;71.88;101339.28;4864911;29;20052;-85
2021/06/15 05:55:19;;;;;;;17.60;11.88;;;;;;;18.17;71.77;101348.84;4878610;29;20430;-85
2021/06/15 05:57:46;;;;;;;14.77;11.90;;;;;;;18.23;71.41;101337.22;4876402;29;20052;-85
2021/06/15 06:00:13;;;;;;;20.08;12.10;;;;;;;18.24;71.15;101344.22;4873812;29;20044;-85
2021/06/15 06:02:40;;;;;;;19.20;11.43;;;;;;;18.26;71.20;101358.31;4879779;29;20040;-85
2021/06/15 06:08:10;;;;;;;15.93;11.32;;;;;;;18.30;70.49;101363.47;4876752;29;20024;-85
2021/06/15 06:10:40;;;;;;;15.98;11.98;;;;;;;18.30;70.42;101362.59;4883833;29;20053;-86
2021/06/15 06:13:11;;;;;;;19.52;12.32;;;;;;;18.21;70.53;101374.31;4883593;29;20562;-85
2021/06/15 06:15:45;;;;;;;15.35;11.65;;;;;;;18.16;70.61;101368.28;4888212;29;21252;-85
2021/06/15 06:18:14;;;;;;;12.60;9.07;;;;;;;18.12;70.70;101371.94;4863310;29;20054;-86
2021/06/15 06:20:44;;;;;;;12.77;9.73;;;;;;;18.12;70.95;101372.84;4882437;29;20052;-84
2021/06/15 06:23:36;;;;;;;16.27;10.02;;;;;;;18.18;70.51;101369.97;4880492;29;20074;-85
2021/06/15 06:26:03;;;;;;;15.63;10.73;;;;;;;18.24;70.21;101371.59;4879122;29;20048;-85
2021/06/15 06:28:31;;;;;;;17.65;10.68;;;;;;;18.30;69.59;101371.44;4895919;29;20056;-85
2021/06/15 06:31:01;;;;;;;16.73;9.98;;;;;;;18.26;69.68;101372.41;4896350;29;20048;-85
2021/06/15 06:33:38;;;;;;;13.90;8.80;;;;;;;18.27;69.62;101378.59;4882033;29;20048;-85
2021/06/15 06:36:06;;;;;;;14.15;9.48;;;;;;;18.34;69.46;101378.38;4881846;29;20056;-85
2021/06/15 06:38:55;;;;;;;14.90;8.82;;;;;;;18.46;68.63;101377.13;4868505;29;20154;-85
2021/06/15 06:41:27;;;;;;;11.43;9.05;;;;;;;18.61;68.31;101391.69;4879191;29;20047;-85
2021/06/15 06:43:54;;;;;;;11.23;8.85;;;;;;;18.68;67.73;101377.34;4855439;29;20869;-85
2021/06/15 06:46:21;;;;;;;10.80;7.60;;;;;;;18.79;67.00;101376.13;4895138;29;20108;-85
2021/06/15 06:48:49;;;;;;;9.85;6.88;;;;;;;18.85;66.64;101381.22;4878901;29;20501;-85
2021/06/15 06:51:32;;;;;;;13.85;7.88;;;;;;;18.93;66.54;101379.25;4872749;29;20049;-85
2021/06/15 06:54:00;;;;;;;9.82;6.70;;;;;;;19.01;66.40;101369.25;4887191;29;20044;-85
2021/06/15 06:56:33;;;;;;;9.88;5.78;;;;;;;19.07;66.01;101365.50;4903165;29;20068;-85
2021/06/15 06:59:01;;;;;;;10.75;7.57;;;;;;;19.16;65.72;101374.94;4888416;29;20419;-85
2021/06/15 07:01:31;;;;;;;12.75;6.88;;;;;;;19.22;65.28;101374.75;4878786;29;20058;-85
2021/06/15 07:03:58;;;;;;;12.50;7.45;;;;;;;19.25;65.27;101369.31;4883118;29;20131;-85
2021/06/15 07:06:30;;;;;;;10.77;7.53;;;;;;;19.24;65.01;101374.69;4882072;29;20081;-85
2021/06/15 07:09:06;;;;;;;10.60;7.78;;;;;;;19.11;64.96;101371.59;4884609;29;20118;-85
2021/06/15 07:11:33;;;;;;;13.00;7.15;;;;;;;19.01;65.22;101371.88;4886564;29;20052;-85
2021/06/15 07:13:59;;;;;;;12.40;6.97;;;;;;;18.97;65.46;101375.56;4865940;29;20051;-85
2021/06/15 07:16:42;;;;;;;9.57;6.80;;;;;;;19.05;65.25;101366.50;4886383;29;20044;-85
2021/06/15 07:19:16;;;;;;;14.60;10.13;;;;;;;19.16;64.71;101364.34;4870218;29;20067;-86
2021/06/15 07:21:46;;;;;;;9.73;6.13;;;;;;;19.31;64.48;101370.94;4884965;29;20135;-87
2021/06/15 07:24:15;;;;;;;10.38;7.47;;;;;;;19.46;63.61;101362.44;4886868;29;20598;-84
2021/06/15 07:26:43;;;;;;;12.40;7.10;;;;;;;19.53;63.01;101365.75;4889935;29;20048;-86
2021/06/15 07:29:12;;;;;;;10.90;6.45;;;;;;;19.60;62.50;101367.25;4881392;29;20502;-86
2021/06/15 07:31:39;;;;;;;6.47;5.28;;;;;;;19.54;62.17;101364.78;4864555;29;20135;-85
2021/06/15 07:34:08;;;;;;;10.45;5.32;;;;;;;19.44;62.51;101376.69;4882639;29;20044;-85
2021/06/15 07:36:34;;;;;;;7.40;4.90;;;;;;;19.40;62.45;101377.69;4881967;29;20143;-85
2021/06/15 07:39:01;;;;;;;8.10;5.03;;;;;;;19.33;62.90;101380.56;4877168;29;20060;-85
2021/06/15 07:41:32;;;;;;;6.95;6.25;;;;;;;19.27;63.14;101394.03;4865049;29;20427;-85
2021/06/15 07:43:58;;;;;;;11.75;7.05;;;;;;;19.29;63.28;101388.69;4876131;29;20076;-85
2021/06/15 07:46:26;;;;;;;8.52;5.18;;;;;;;19.38;63.24;101392.81;4867320;29;20055;-86
2021/06/15 07:48:59;;;;;;;9.98;5.90;;;;;;;19.50;62.66;101387.06;4897271;29;20044;-86
2021/06/15 07:51:25;;;;;;;7.65;4.82;;;;;;;19.58;62.08;101397.44;4877202;29;20697;-86
2021/06/15 07:53:56;;;;;;;8.35;5.03;;;;;;;19.71;61.74;101389.91;4863339;29;20048;-86
2021/06/15 07:56:28;;;;;;;13.48;6.40;;;;;;;19.96;61.08;101403.22;4859374;29;20092;-85
2021/06/15 07:58:55;;;;;;;9.57;7.05;;;;;;;20.08;60.62;101408.06;4866725;29;20060;-85
2021/06/15 08:01:23;;;;;;;10.40;6.45;;;;;;;20.02;60.57;101405.63;4883964;29;20450;-86
2021/06/15 08:03:57;;;;;;;12.43;6.50;;;;;;;19.81;61.30;101413.44;4851447;29;20048;-85
2021/06/15 08:07:03;;;;;;;10.40;7.07;;;;;;;19.66;61.47;101409.53;4877746;29;20064;-85
2021/06/15 08:10:03;;;;;;;5.85;5.20;;;;;;;19.50;62.07;101421.59;4875780;29;20041;-85
2021/06/15 08:12:52;;;;;;;6.32;3.60;;;;;;;19.49;61.48;101418.09;4878249;29;20124;-85
2021/06/15 08:15:36;;;;;;;7.40;3.50;;;;;;;19.71;61.14;101420.00;4874150;29;20112;-85
2021/06/15 08:18:06;;;;;;;6.82;3.67;;;;;;;19.95;60.28;101423.59;4864086;29;20056;-85
2021/06/15 08:20:38;;;;;;;7.78;4.32;;;;;;;20.08;59.50;101421.38;4878621;29;20454;-86
2021/06/15 08:23:05;;;;;;;8.02;4.72;;;;;;;19.98;59.51;101417.31;4864296;29;20060;-86
2021/06/15 08:25:34;;;;;;;3.78;3.38;;;;;;;19.95;59.20;101412.13;4893022;29;20132;-86
2021/06/15 08:28:28;;;;;;;5.15;2.85;;;;;;;19.91;58.70;101416.66;4852007;29;20457;-86
2021/06/15 08:30:58;;;;;;;7.68;3.80;;;;;;;20.14;58.36;101409.63;4881130;29;20083;-85
2021/06/15 08:33:35;;;;;;;11.15;3.75;;;;;;;20.48;56.67;101411.91;4880871;29;20063;-86
2021/06/15 08:36:02;;;;;;;3.25;2.53;;;;;;;20.81;56.00;101421.31;4865985;29;20044;-86
2021/06/15 08:38:34;;;;;;;7.20;3.10;;;;;;;20.98;54.82;101416.16;4896601;29;20048;-86
2021/06/15 08:41:06;;;;;;;4.90;2.92;;;;;;;21.11;54.43;101421.88;4868117;29;20544;-85
2021/06/15 08:43:34;;;;;;;10.20;3.78;;;;;;;21.32;53.92;101419.25;4851377;29;20049;-85
2021/06/15 08:46:07;;;;;;;6.80;3.47;;;;;;;21.64;53.17;101419.69;4858914;29;20167;-85
2021/06/15 08:48:34;;;;;;;5.65;2.88;;;;;;;21.92;52.11;101418.50;4847438;29;21010;-85
2021/06/15 08:51:06;;;;;;;6.10;2.70;;;;;;;22.11;51.02;101424.75;4857127;29;20661;-85
2021/06/15 08:53:38;;;;;;;6.53;2.20;;;;;;;22.27;50.92;101427.56;4860181;29;20052;-86
2021/06/15 08:56:38;;;;;;;5.85;2.47;;;;;;;22.27;50.29;101416.03;4892179;29;20060;-84
2021/06/15 08:59:20;;;;;;;6.63;2.63;;;;;;;22.37;50.21;101420.06;4853343;29;20079;-85
2021/06/15 09:01:53;;;;;;;4.47;2.53;;;;;;;22.33;50.29;101428.22;4871181;29;21024;-85
2021/06/15 09:04:21;;;;;;;10.25;2.58;;;;;;;22.26;50.72;101420.50;4864397;29;20045;-84
2021/06/15 09:06:50;;;;;;;5.32;2.63;;;;;;;22.10;51.39;101419.47;4882222;29;20048;-85
2021/06/15 09:09:18;;;;;;;5.90;2.92;;;;;;;21.98;51.54;101423.56;4884943;29;20509;-85
2021/06/15 09:11:59;;;;;;;6.50;2.78;;;;;;;21.98;51.39;101423.56;4871774;29;20064;-85
2021/06/15 09:14:53;;;;;;;4.18;2.53;;;;;;;22.02;50.94;101422.50;4887612;29;20044;-84
2021/06/15 09:17:37;;;;;;;7.03;2.45;;;;;;;22.04;50.68;101412.59;4897292;29;20048;-86
2021/06/15 09:20:32;;;;;;;4.35;2.13;;;;;;;22.18;49.58;101416.47;4895305;29;20507;-85
2021/06/15 09:23:19;;;;;;;4.57;1.92;;;;;;;22.30;49.52;101421.22;4883632;29;20942;-83
2021/06/15 09:25:51;;;;;;;4.00;2.50;;;;;;;22.53;48.69;101422.84;4913915;29;20499;-86
2021/06/15 09:28:26;;;;;;;5.95;2.30;;;;;;;22.53;48.41;101427.31;4893169;29;20048;-86
2021/06/15 09:31:07;;;;;;;7.75;2.42;;;;;;;22.42;48.17;101430.50;4897780;29;20040;-85
2021/06/15 09:34:02;;;;;;;8.15;2.30;;;;;;;22.39;47.74;101420.81;4878430;29;20408;-85
2021/06/15 09:36:30;;;;;;;6.15;2.13;;;;;;;22.69;47.18;101423.00;4890563;29;20523;-85
2021/06/15 09:39:15;;;;;;;9.20;2.22;;;;;;;23.13;45.66;101417.28;4881168;29;20116;-85
2021/06/15 09:41:49;;;;;;;2.45;1.35;;;;;;;23.56;45.11;101416.09;4883035;29;20140;-85
2021/06/15 09:44:29;;;;;;;5.82;1.70;;;;;;;24.22;43.28;101409.97;4871712;29;20045;-85
2021/06/15 09:47:04;;;;;;;4.05;1.65;;;;;;;24.61;42.34;101415.84;4886444;29;20064;-87
2021/06/15 09:49:45;;;;;;;5.15;1.85;;;;;;;24.50;41.73;101413.78;4872260;29;20111;-84
2021/06/15 09:52:24;;;;;;;4.40;1.88;;;;;;;25.09;40.96;101403.31;4884446;29;20586;-84
2021/06/15 09:54:58;;;;;;;5.75;1.85;;;;;;;26.09;39.21;101412.56;4864941;29;20044;-84
2021/06/15 09:57:33;;;;;;;5.45;1.50;;;;;;;27.80;35.96;101412.22;4900831;29;20717;-84
2021/06/15 10:00:23;;;;;;;5.75;2.28;;;;;;;28.88;33.83;101407.19;4871538;29;20044;-87
2021/06/15 10:02:59;;;;;;;4.40;1.70;;;;;;;29.17;32.94;101401.44;4886564;29;20151;-86
2021/06/15 10:05:36;;;;;;;6.43;1.85;;;;;;;29.40;32.36;101401.50;4885067;29;20044;-85
2021/06/15 10:08:13;;;;;;;2.80;1.73;;;;;;;29.97;30.69;101400.69;4882536;29;20416;-85
2021/06/15 10:10:46;;;;;;;5.60;2.08;;;;;;;30.64;30.08;101401.59;4866497;29;20523;-87
2021/06/15 10:13:24;;;;;;;3.72;1.40;;;;;;;30.73;29.31;101397.28;4910363;29;20044;-86
2021/06/15 10:15:57;;;;;;;1.85;1.02;;;;;;;31.17;27.98;101400.84;4881949;29;22767;-85
2021/06/15 10:18:24;;;;;;;3.53;1.48;;;;;;;31.68;27.44;101395.66;4885815;29;20518;-87
2021/06/15 10:20:54;;;;;;;2.78;0.82;;;;;;;32.59;26.06;101387.59;4898214;29;20056;-86
2021/06/15 10:23:25;;;;;;;3.67;1.65;;;;;;;32.87;24.89;101385.06;4903289;29;20117;-86
2021/06/15 10:25:53;;;;;;;2.70;1.30;;;;;;;32.89;24.41;101388.47;4865713;29;20055;-85
2021/06/15 10:28:24;;;;;;;2.67;1.10;;;;;;;32.52;25.20;101391.84;4884817;29;20044;-85
2021/06/15 10:30:51;;;;;;;4.38;1.10;;;;;;;32.81;24.93;101397.34;4904094;29;20131;-85
2021/06/15 10:33:52;;;;;;;4.13;1.30;;;;;;;32.92;24.68;101392.75;4892969;29;20044;-85
2021/06/15 10:36:50;;;;;;;5.30;1.30;;;;;;;33.35;23.72;101391.50;4873666;29;20051;-86
2021/06/15 10:39:47;;;;;;;2.95;1.23;;;;;;;34.09;23.30;101397.13;4867605;29;20070;-85
2021/06/15 10:42:18;;;;;;;5.28;1.60;;;;;;;34.73;23.07;101397.19;4881699;29;20115;-85
2021/06/15 10:45:16;;;;;;;4.88;1.38;;;;;;;34.94;22.48;101396.91;4865060;29;20055;-84
2021/06/15 10:48:05;;;;;;;1.48;0.70;;;;;;;35.27;22.58;101389.88;4879739;29;20107;-86
2021/06/15 10:50:44;;;;;;;1.75;0.95;;;;;;;36.29;21.53;101386.56;4873565;29;20059;-86
2021/06/15 10:53:18;;;;;;;3.53;1.45;;;;;;;36.91;20.80;101385.38;4884160;29;20116;-84
2021/06/15 10:56:07;;;;;;;1.85;0.82;;;;;;;37.21;19.36;101381.09;4869419;29;20053;-87
2021/06/15 10:58:36;;;;;;;5.72;0.63;;;;;;;37.43;19.77;101381.44;4879080;29;20080;-86
2021/06/15 11:01:26;;;;;;;2.50;0.95;;;;;;;37.07;18.37;101377.19;4895939;29;20052;-83
2021/06/15 11:04:03;;;;;;;3.85;0.80;;;;;;;37.11;18.93;101374.13;4898401;29;20051;-85
2021/06/15 11:06:32;;;;;;;1.17;0.60;;;;;;;36.97;18.61;101381.97;4884493;29;20077;-85
2021/06/15 11:09:14;;;;;;;2.20;0.60;;;;;;;36.98;17.98;101380.09;4876866;29;20917;-85
2021/06/15 11:12:17;;;;;;;1.58;0.68;;;;;;;37.05;18.03;101378.38;4897806;29;20058;-84
2021/06/15 11:15:12;;;;;;;2.67;1.10;;;;;;;37.41;17.52;101384.34;4876491;29;20135;-86
2021/06/15 11:17:57;;;;;;;2.60;1.15;;;;;;;38.22;16.85;101384.25;4872378;29;20618;-85
2021/06/15 11:20:47;;;;;;;2.60;0.65;;;;;;;38.82;16.18;101384.59;4859724;29;20084;-84
2021/06/15 11:23:25;;;;;;;1.58;0.50;;;;;;;39.33;15.80;101385.91;4874440;29;20079;-86
2021/06/15 11:26:00;;;;;;;3.03;0.65;;;;;;;39.89;15.37;101377.25;4880553;29;20055;-84
2021/06/15 11:28:47;;;;;;;3.88;0.88;;;;;;;39.77;14.97;101379.63;4881012;29;20083;-84
2021/06/15 11:31:27;;;;;;;1.23;0.73;;;;;;;39.06;15.30;101382.69;4865511;29;20058;-87
2021/06/15 11:34:01;;;;;;;4.93;0.98;;;;;;;38.98;15.50;101380.91;4867067;29;20067;-85
2021/06/15 11:36:41;;;;;;;1.98;0.77;;;;;;;39.34;15.71;101376.66;4880366;29;20116;-86
2021/06/15 11:39:27;;;;;;;3.03;0.93;;;;;;;40.01;14.51;101373.00;4875243;29;20050;-85
2021/06/15 11:42:19;;;;;;;2.05;1.00;;;;;;;39.63;14.62;101375.84;4896912;29;20056;-84
2021/06/15 11:45:04;;;;;;;2.70;1.00;;;;;;;39.75;14.50;101373.47;4872608;29;20686;-86
2021/06/15 11:47:39;;;;;;;3.05;0.85;;;;;;;40.17;13.83;101377.44;4891303;29;21000;-85
2021/06/15 11:50:08;;;;;;;1.98;0.55;;;;;;;39.93;13.37;101370.34;4896294;29;20060;-86
2021/06/15 11:52:37;;;;;;;1.02;0.60;;;;;;;39.66;13.38;101371.88;4873014;29;20496;-84
2021/06/15 11:55:06;;;;;;;1.63;0.60;;;;;;;39.69;12.70;101372.34;4881386;29;20103;-85
2021/06/15 11:57:35;;;;;;;2.05;0.73;;;;;;;39.83;12.82;101370.66;4871996;29;20051;-83